Time;durP1;ratioP1;P1;durP2;ratioP2;P2;SDS_P1;SDS_P2;PMS_P1;PMS_P2;Temp;Humidity;BMP_temperature;BMP_pressure;BME280_temperature;BME280_humidity;BME280_pressure;Samples;Min_cycle;Max_cycle;Signal;HPM_P1;HPM_P2
2022/07/20 00:02:05;;;;;;;3.17;2.80;;;;;;;19.14;50.54;95477.97;5115165;28;20199;-67
2022/07/20 00:04:32;;;;;;;3.90;2.97;;;;;;;19.18;50.61;95475.16;5114951;28;20192;-67
2022/07/20 00:06:59;;;;;;;4.10;2.90;;;;;;;19.22;50.63;95473.97;5115176;28;20192;-67
2022/07/20 00:12:11;;;;;;;2.92;2.42;;;;;;;19.17;51.05;95477.16;5115802;28;20203;-67
2022/07/20 00:14:38;;;;;;;5.10;2.90;;;;;;;19.10;50.93;95471.56;5114978;28;20212;-67
2022/07/20 00:17:04;;;;;;;4.03;2.80;;;;;;;19.02;51.21;95474.75;5115887;28;20192;-67
2022/07/20 00:19:31;;;;;;;3.03;2.60;;;;;;;18.94;51.20;95473.94;5115546;28;20198;-67
2022/07/20 00:21:58;;;;;;;3.20;2.90;;;;;;;18.88;51.25;95465.16;5114671;28;20630;-68
2022/07/20 00:24:25;;;;;;;4.53;2.90;;;;;;;18.89;51.27;95466.75;5115559;28;20190;-68
2022/07/20 00:26:51;;;;;;;3.65;3.08;;;;;;;18.93;51.39;95463.97;5114504;28;20597;-68
2022/07/20 00:29:20;;;;;;;2.80;2.60;;;;;;;18.89;51.38;95461.16;5114897;28;20223;-68
2022/07/20 00:31:47;;;;;;;2.80;2.53;;;;;;;18.89;51.05;95458.38;5114950;28;20209;-67
2022/07/20 00:34:13;;;;;;;5.97;2.72;;;;;;;18.90;51.39;95459.94;5113853;28;20606;-67
2022/07/20 00:36:40;;;;;;;4.90;2.65;;;;;;;18.86;51.24;95458.34;5114969;28;20207;-67
2022/07/20 00:39:07;;;;;;;3.10;2.85;;;;;;;18.85;51.50;95470.75;5114292;28;20191;-67
2022/07/20 00:41:34;;;;;;;4.15;2.92;;;;;;;18.87;51.56;95466.34;5114628;28;20225;-67
2022/07/20 00:44:06;;;;;;;2.95;2.70;;;;;;;18.87;51.72;95468.34;5114595;28;20211;-67
2022/07/20 00:46:35;;;;;;;2.97;2.42;;;;;;;18.83;51.55;95461.94;5115699;28;20287;-67
2022/07/20 00:49:03;;;;;;;5.07;2.65;;;;;;;18.81;51.88;95473.53;5115379;28;20538;-67
2022/07/20 00:51:29;;;;;;;3.80;2.78;;;;;;;18.79;50.78;95458.34;5115250;28;20618;-67
2022/07/20 00:53:56;;;;;;;3.47;2.50;;;;;;;18.82;51.00;95461.16;5115250;28;20272;-67
2022/07/20 00:56:24;;;;;;;2.80;2.60;;;;;;;18.83;50.91;95468.31;5114268;28;20198;-67
2022/07/20 00:58:51;;;;;;;3.30;2.70;;;;;;;18.85;50.41;95465.94;5114666;28;20180;-67
2022/07/20 01:01:18;;;;;;;3.35;2.60;;;;;;;18.88;50.09;95467.13;5114443;28;20206;-67
2022/07/20 01:03:46;;;;;;;2.85;2.58;;;;;;;18.90;49.79;95471.13;5114466;28;20519;-67
2022/07/20 01:06:13;;;;;;;3.60;3.30;;;;;;;18.86;49.70;95461.94;5114886;28;20616;-67
2022/07/20 01:08:40;;;;;;;3.83;3.00;;;;;;;18.80;50.73;95463.53;5114490;28;20215;-67
2022/07/20 01:11:07;;;;;;;3.60;3.30;;;;;;;18.73;51.01;95472.69;5115303;28;20176;-67
2022/07/20 01:13:34;;;;;;;3.17;2.70;;;;;;;18.70;51.68;95465.09;5114728;28;20196;-67
2022/07/20 01:16:01;;;;;;;3.90;3.30;;;;;;;18.65;51.55;95462.66;5115290;28;20184;-67
2022/07/20 01:18:28;;;;;;;5.20;3.20;;;;;;;18.61;51.57;95461.88;5115188;28;20211;-67
2022/07/20 01:21:00;;;;;;;3.75;3.45;;;;;;;18.55;51.64;95463.44;5113895;28;20191;-67
2022/07/20 01:23:27;;;;;;;5.25;2.95;;;;;;;18.52;51.83;95462.25;5114498;28;20208;-67
2022/07/20 01:25:54;;;;;;;5.22;2.80;;;;;;;18.46;51.86;95457.44;5114349;28;20192;-67
2022/07/20 01:28:21;;;;;;;3.75;2.83;;;;;;;18.39;51.92;95457.41;5114460;28;20647;-67
2022/07/20 01:30:47;;;;;;;3.10;2.80;;;;;;;18.36;52.13;95463.78;5114411;28;20548;-67
2022/07/20 01:33:14;;;;;;;3.72;2.92;;;;;;;18.36;52.01;95456.22;5114203;28;20194;-67
2022/07/20 01:35:41;;;;;;;4.22;3.15;;;;;;;18.34;51.86;95455.81;5114584;28;20203;-67
2022/07/20 01:38:09;;;;;;;4.75;3.00;;;;;;;18.29;52.53;95456.19;5097398;28;20200;-67
2022/07/20 01:40:37;;;;;;;2.97;2.67;;;;;;;18.24;52.81;95449.00;5114997;28;20184;-67
2022/07/20 01:43:04;;;;;;;5.10;2.63;;;;;;;18.27;52.22;95448.22;5114021;28;20191;-67
2022/07/20 01:45:31;;;;;;;2.72;2.47;;;;;;;18.29;51.92;95450.59;5117081;28;20188;-67
2022/07/20 01:47:58;;;;;;;3.58;2.90;;;;;;;18.31;51.55;95453.81;5118562;28;20187;-67
2022/07/20 01:50:25;;;;;;;4.43;3.25;;;;;;;18.32;51.51;95462.97;5118411;28;20596;-67
2022/07/20 01:52:52;;;;;;;2.88;2.67;;;;;;;18.34;51.08;95458.59;5117604;28;20211;-67
2022/07/20 01:55:20;;;;;;;3.80;2.80;;;;;;;18.35;50.81;95463.00;5076960;28;20185;-67
2022/07/20 01:57:47;;;;;;;2.90;2.67;;;;;;;18.38;50.85;95461.41;5078024;28;20185;-67
2022/07/20 02:00:14;;;;;;;3.17;2.90;;;;;;;18.37;50.95;95462.59;5076896;28;20193;-67
2022/07/20 02:02:41;;;;;;;4.65;3.40;;;;;;;18.35;51.22;95465.78;5077715;28;20186;-67
2022/07/20 02:05:09;;;;;;;3.72;3.42;;;;;;;18.34;50.96;95468.94;5076687;28;20232;-67
2022/07/20 02:07:37;;;;;;;3.95;3.60;;;;;;;18.32;50.75;95471.34;5076747;28;20549;-67
2022/07/20 02:10:06;;;;;;;4.55;4.00;;;;;;;18.32;50.87;95476.94;5076556;28;20213;-67
2022/07/20 02:12:34;;;;;;;4.00;3.70;;;;;;;18.29;50.34;95467.34;5076707;28;20212;-67
2022/07/20 02:15:01;;;;;;;3.90;3.60;;;;;;;18.28;50.38;95480.50;5077703;28;20189;-67
2022/07/20 02:17:27;;;;;;;3.55;3.30;;;;;;;18.26;50.46;95474.53;5076484;28;20193;-67
2022/07/20 02:19:54;;;;;;;3.08;2.83;;;;;;;18.26;50.33;95482.09;5076199;28;20197;-67
2022/07/20 02:22:21;;;;;;;5.40;2.92;;;;;;;18.25;50.55;95481.28;5076425;28;20204;-67
2022/07/20 02:24:47;;;;;;;3.10;2.70;;;;;;;18.24;50.26;95479.69;5077362;28;20247;-67
2022/07/20 02:27:14;;;;;;;3.15;2.78;;;;;;;18.21;50.23;95474.91;5077278;28;20192;-67
2022/07/20 02:29:43;;;;;;;3.33;2.85;;;;;;;18.19;50.56;95479.25;5077628;28;20209;-67
2022/07/20 02:32:09;;;;;;;4.38;3.30;;;;;;;18.12;51.15;95468.91;5076465;28;20193;-67
2022/07/20 02:34:36;;;;;;;3.30;3.00;;;;;;;17.98;51.70;95474.41;5077164;28;20189;-67
2022/07/20 02:37:03;;;;;;;5.82;3.30;;;;;;;17.86;52.00;95472.72;5076198;28;20197;-67
2022/07/20 02:39:31;;;;;;;4.15;3.28;;;;;;;17.86;52.05;95474.72;5075989;28;20197;-67
2022/07/20 02:41:57;;;;;;;4.80;3.03;;;;;;;17.83;52.26;95475.50;5076707;28;20610;-67
2022/07/20 02:44:24;;;;;;;3.85;3.08;;;;;;;17.76;52.25;95479.88;5076946;28;20189;-67
2022/07/20 02:46:54;;;;;;;5.20;3.30;;;;;;;17.70;52.82;95475.00;5075614;28;20656;-67
2022/07/20 02:49:21;;;;;;;4.93;3.10;;;;;;;17.63;52.87;95481.34;5076825;28;20209;-67
2022/07/20 02:51:47;;;;;;;3.75;3.10;;;;;;;17.56;53.04;95486.88;5076824;28;20197;-67
2022/07/20 02:54:14;;;;;;;4.18;3.20;;;;;;;17.52;53.42;95486.84;5099268;28;20227;-67
2022/07/20 02:56:41;;;;;;;3.53;3.22;;;;;;;17.56;52.92;95479.28;5115632;28;20199;-67
2022/07/20 02:59:07;;;;;;;3.35;3.05;;;;;;;17.61;52.77;95489.31;5117451;28;20191;-67
2022/07/20 03:01:34;;;;;;;4.00;3.20;;;;;;;17.60;53.03;95492.47;5117266;28;20185;-67
2022/07/20 03:04:02;;;;;;;5.65;3.30;;;;;;;17.56;53.31;95489.66;5117119;28;20206;-67
2022/07/20 03:06:29;;;;;;;8.00;3.38;;;;;;;17.56;53.43;95490.44;5117422;28;20188;-67
2022/07/20 03:08:56;;;;;;;4.88;3.13;;;;;;;17.54;53.09;95492.84;5117086;28;20230;-67
2022/07/20 03:11:23;;;;;;;6.40;3.40;;;;;;;17.48;53.10;95490.81;5116517;28;20196;-66
2022/07/20 03:13:50;;;;;;;3.78;3.10;;;;;;;17.44;52.94;95493.56;5116658;28;20184;-67
2022/07/20 03:16:17;;;;;;;4.88;3.10;;;;;;;17.43;53.21;95499.50;5115959;28;20208;-67
2022/07/20 03:18:43;;;;;;;4.65;2.90;;;;;;;17.43;53.43;95496.72;5115790;28;20620;-70
2022/07/20 03:21:12;;;;;;;3.80;3.30;;;;;;;17.45;53.71;95497.16;5115968;28;20191;-69
2022/07/20 03:23:39;;;;;;;3.42;3.00;;;;;;;17.46;53.26;95493.16;5116798;28;20195;-69
2022/07/20 03:26:06;;;;;;;4.82;3.35;;;;;;;17.42;53.48;95495.94;5116608;28;20176;-69
2022/07/20 03:28:33;;;;;;;5.72;2.90;;;;;;;17.37;53.21;95509.44;5115672;28;20195;-68
2022/07/20 03:31:01;;;;;;;6.57;3.42;;;;;;;17.31;53.57;95507.00;5116396;28;20184;-68
2022/07/20 03:33:27;;;;;;;5.20;3.40;;;;;;;17.27;53.54;95514.53;5116288;28;20696;-69
2022/07/20 03:35:54;;;;;;;4.00;3.22;;;;;;;17.26;53.59;95515.72;5115665;28;20206;-68
2022/07/20 03:38:22;;;;;;;4.88;3.50;;;;;;;17.22;53.60;95514.09;5116492;28;20599;-67
2022/07/20 03:40:49;;;;;;;5.20;3.20;;;;;;;17.18;53.98;95516.06;5116379;28;20187;-69
2022/07/20 03:43:16;;;;;;;4.05;3.42;;;;;;;17.16;54.56;95522.00;5116514;28;20187;-70
2022/07/20 03:45:42;;;;;;;3.28;2.97;;;;;;;17.17;54.13;95518.03;5116467;28;20195;-70
2022/07/20 03:48:09;;;;;;;5.55;3.55;;;;;;;17.22;54.46;95508.53;5115372;28;20207;-69
2022/07/20 03:50:36;;;;;;;6.07;3.38;;;;;;;17.30;54.58;95521.31;5115051;28;20223;-72
2022/07/20 03:53:03;;;;;;;5.78;3.28;;;;;;;17.31;54.41;95525.72;5114926;28;20191;-72
2022/07/20 03:55:31;;;;;;;5.20;3.65;;;;;;;17.28;54.32;95521.72;5115001;28;20195;-72
2022/07/20 03:57:58;;;;;;;4.85;3.47;;;;;;;17.26;54.71;95521.28;5116345;28;20179;-72
2022/07/20 04:00:25;;;;;;;6.72;3.53;;;;;;;17.30;54.35;95522.13;5116114;28;20196;-72
2022/07/20 04:02:52;;;;;;;6.22;3.47;;;;;;;17.30;54.79;95527.69;5115717;28;20199;-72
2022/07/20 04:05:18;;;;;;;7.97;4.07;;;;;;;17.29;55.04;95523.31;5116046;28;20203;-72
2022/07/20 04:07:45;;;;;;;6.45;3.67;;;;;;;17.32;54.83;95528.13;5115542;28;20199;-71
2022/07/20 04:10:12;;;;;;;5.28;3.75;;;;;;;17.38;54.94;95522.19;5115339;28;20207;-76
2022/07/20 04:12:42;;;;;;;6.05;4.05;;;;;;;17.43;54.84;95519.84;5116070;28;20168;-71
2022/07/20 04:15:10;;;;;;;4.63;3.75;;;;;;;17.45;55.50;95525.03;5114893;28;20271;-73
2022/07/20 04:17:36;;;;;;;8.35;3.80;;;;;;;17.49;55.40;95526.66;5115805;28;20212;-73
2022/07/20 04:20:05;;;;;;;6.47;3.88;;;;;;;17.54;55.37;95529.09;5115901;28;20514;-73
2022/07/20 04:22:32;;;;;;;5.47;4.00;;;;;;;17.60;55.36;95526.72;5114891;28;20308;-73
2022/07/20 04:24:59;;;;;;;5.78;3.50;;;;;;;17.60;55.29;95523.94;5114790;28;20522;-73
2022/07/20 04:27:26;;;;;;;3.83;3.53;;;;;;;17.68;55.29;95522.00;5115020;28;20184;-73
2022/07/20 04:29:54;;;;;;;6.25;3.53;;;;;;;17.72;55.57;95525.63;5115325;28;20318;-72
2022/07/20 04:32:21;;;;;;;6.75;3.50;;;;;;;17.74;54.98;95524.03;5115029;28;20196;-72
2022/07/20 04:34:48;;;;;;;5.55;3.85;;;;;;;17.80;54.21;95527.31;5114808;28;20200;-73
2022/07/20 04:37:14;;;;;;;4.18;3.17;;;;;;;17.84;53.85;95532.91;5115655;28;20215;-73
2022/07/20 04:39:41;;;;;;;3.17;2.90;;;;;;;17.89;52.85;95536.13;5115341;28;20630;-73
2022/07/20 04:42:08;;;;;;;5.57;3.30;;;;;;;17.92;52.65;95532.56;5114476;28;20635;-73
2022/07/20 04:44:35;;;;;;;3.58;3.28;;;;;;;17.96;52.47;95538.97;5115531;28;20200;-73
2022/07/20 04:47:03;;;;;;;6.45;3.15;;;;;;;18.00;52.70;95537.00;5115150;28;20188;-70
2022/07/20 04:49:30;;;;;;;6.28;3.65;;;;;;;18.04;52.50;95539.81;5114878;28;20241;-70
2022/07/20 04:51:57;;;;;;;6.07;3.22;;;;;;;18.07;52.23;95546.59;5114796;28;20196;-68
2022/07/20 04:54:23;;;;;;;5.40;3.65;;;;;;;18.07;51.70;95539.03;5114522;28;20223;-69
2022/07/20 04:56:51;;;;;;;3.08;2.80;;;;;;;18.10;51.16;95543.03;5115578;28;20180;-68
2022/07/20 04:59:17;;;;;;;5.30;3.33;;;;;;;18.14;51.60;95546.66;5115286;28;20188;-68
2022/07/20 05:01:44;;;;;;;3.83;3.05;;;;;;;18.15;51.61;95549.03;5115551;28;20244;-68
2022/07/20 05:04:12;;;;;;;5.68;3.58;;;;;;;18.18;52.28;95539.88;5115851;28;20188;-68
2022/07/20 05:06:39;;;;;;;3.42;3.05;;;;;;;18.21;51.70;95543.91;5114769;28;20194;-68
2022/07/20 05:09:07;;;;;;;3.42;3.13;;;;;;;18.19;52.08;95549.88;5114404;28;20206;-69
2022/07/20 05:11:33;;;;;;;3.33;3.03;;;;;;;18.21;51.68;95544.69;5114766;28;20292;-71
2022/07/20 05:14:00;;;;;;;5.63;3.28;;;;;;;18.22;52.09;95551.88;5114841;28;20207;-69
2022/07/20 05:16:27;;;;;;;4.18;3.78;;;;;;;18.24;52.13;95551.50;5115827;28;20517;-71
2022/07/20 05:18:54;;;;;;;3.72;3.38;;;;;;;18.27;52.22;95556.31;5115770;28;20180;-72
2022/07/20 05:21:22;;;;;;;5.05;3.53;;;;;;;18.33;52.03;95556.72;5118332;28;20222;-71
2022/07/20 05:23:50;;;;;;;4.55;3.63;;;;;;;18.38;52.16;95554.38;5119479;28;20199;-72
2022/07/20 05:26:16;;;;;;;5.85;3.50;;;;;;;18.42;52.42;95560.75;5119243;28;20268;-71
2022/07/20 05:28:43;;;;;;;4.13;3.35;;;;;;;18.47;52.45;95548.41;5119426;28;20183;-72
2022/07/20 05:31:13;;;;;;;4.13;3.38;;;;;;;18.51;52.69;95550.00;5119035;28;20214;-71
2022/07/20 05:33:40;;;;;;;4.93;3.47;;;;;;;18.55;52.17;95552.81;5119239;28;20245;-72
2022/07/20 05:36:07;;;;;;;3.50;3.20;;;;;;;18.58;52.16;95554.84;5118227;28;20229;-72
2022/07/20 05:38:36;;;;;;;3.25;2.95;;;;;;;18.63;52.07;95551.69;5117632;28;20196;-71
2022/07/20 05:41:03;;;;;;;3.22;2.88;;;;;;;18.67;51.85;95549.69;5118816;28;20195;-69
2022/07/20 05:43:30;;;;;;;3.28;2.95;;;;;;;18.71;52.33;95544.16;5118787;28;20196;-68
2022/07/20 05:45:57;;;;;;;3.45;3.20;;;;;;;18.72;52.23;95546.53;5119090;28;20184;-69
2022/07/20 05:48:24;;;;;;;3.83;3.20;;;;;;;18.74;51.67;95551.75;5118489;28;20206;-70
2022/07/20 05:50:51;;;;;;;3.58;3.10;;;;;;;18.76;52.13;95555.72;5118194;28;20216;-70
2022/07/20 05:53:18;;;;;;;3.90;3.30;;;;;;;18.76;51.64;95561.31;5117902;28;20686;-71
2022/07/20 05:55:47;;;;;;;4.15;3.10;;;;;;;18.75;50.62;95554.13;5117967;28;20195;-70
2022/07/20 05:58:13;;;;;;;5.07;3.08;;;;;;;18.81;50.66;95559.34;5118985;28;20184;-69
2022/07/20 06:00:40;;;;;;;3.58;3.05;;;;;;;18.85;51.10;95560.16;5117874;28;20207;-70
2022/07/20 06:03:08;;;;;;;4.13;3.10;;;;;;;18.84;51.53;95559.34;5117458;28;20195;-70
2022/07/20 06:05:35;;;;;;;3.47;3.10;;;;;;;18.88;51.78;95562.16;5118098;28;20636;-72
2022/07/20 06:08:02;;;;;;;3.30;3.00;;;;;;;18.89;51.24;95555.38;5118125;28;20592;-71
2022/07/20 06:10:30;;;;;;;3.05;2.80;;;;;;;18.92;51.49;95562.97;5117209;28;20218;-71
2022/07/20 06:12:59;;;;;;;3.30;2.95;;;;;;;18.94;51.95;95566.97;5117329;28;20276;-71
2022/07/20 06:15:26;;;;;;;4.43;3.17;;;;;;;18.97;51.41;95560.59;5118118;28;20188;-71
2022/07/20 06:17:54;;;;;;;3.60;3.30;;;;;;;19.04;51.15;95564.59;5117553;28;20249;-71
2022/07/20 06:20:22;;;;;;;5.45;3.17;;;;;;;19.10;50.66;95565.78;5117746;28;20526;-73
2022/07/20 06:22:49;;;;;;;4.35;3.10;;;;;;;19.14;50.58;95570.22;5118284;28;20195;-75
2022/07/20 06:25:17;;;;;;;4.15;3.75;;;;;;;19.19;50.46;95567.03;5117956;28;20195;-75
2022/07/20 06:27:44;;;;;;;4.40;3.20;;;;;;;19.27;50.55;95561.44;5117955;28;20184;-76
2022/07/20 06:30:14;;;;;;;3.60;3.30;;;;;;;19.36;50.30;95561.88;5117952;28;20639;-76
2022/07/20 06:32:40;;;;;;;3.20;2.90;;;;;;;19.41;50.71;95561.47;5116082;28;20207;-76
2022/07/20 06:35:08;;;;;;;4.88;3.15;;;;;;;19.45;50.65;95556.66;5117614;28;20180;-76
2022/07/20 06:37:35;;;;;;;4.63;3.50;;;;;;;19.50;50.81;95559.09;5117675;28;20203;-75
2022/07/20 06:40:02;;;;;;;3.50;3.20;;;;;;;19.58;50.66;95562.69;5118104;28;20192;-75
2022/07/20 06:42:29;;;;;;;4.90;3.70;;;;;;;19.64;50.76;95556.28;5117088;28;20204;-75
2022/07/20 06:44:56;;;;;;;5.22;2.90;;;;;;;19.70;51.05;95554.69;5117555;28;20195;-75
2022/07/20 06:47:24;;;;;;;4.70;3.20;;;;;;;19.79;50.74;95559.91;5117492;28;20184;-75
2022/07/20 06:49:51;;;;;;;4.05;3.72;;;;;;;19.86;50.36;95548.72;5116962;28;20196;-76
2022/07/20 06:52:17;;;;;;;5.28;3.38;;;;;;;19.92;50.00;95549.09;5117506;28;20180;-75
2022/07/20 06:54:44;;;;;;;3.40;3.10;;;;;;;19.95;49.58;95548.28;5116939;28;20682;-76
2022/07/20 06:57:11;;;;;;;5.60;3.88;;;;;;;19.95;49.63;95543.47;5116589;28;20198;-75
2022/07/20 06:59:38;;;;;;;6.07;3.47;;;;;;;19.97;49.34;95548.66;5117323;28;20180;-75
2022/07/20 07:02:05;;;;;;;5.22;3.83;;;;;;;19.97;49.33;95545.88;5116975;28;20187;-75
2022/07/20 07:04:34;;;;;;;5.63;2.92;;;;;;;19.94;49.28;95541.09;5117068;28;20198;-74
2022/07/20 07:07:02;;;;;;;4.20;3.40;;;;;;;19.92;48.66;95535.88;5098767;28;20203;-75
2022/07/20 07:09:28;;;;;;;3.35;3.15;;;;;;;19.96;48.85;95535.88;5116519;28;20590;-75
2022/07/20 07:11:55;;;;;;;4.03;3.63;;;;;;;20.01;49.18;95532.69;5116375;28;20207;-74
2022/07/20 07:14:22;;;;;;;5.35;3.65;;;;;;;20.08;49.07;95523.44;5116944;28;20691;-74
2022/07/20 07:16:49;;;;;;;3.33;3.03;;;;;;;20.14;49.39;95535.84;5116188;28;20192;-74
2022/07/20 07:19:16;;;;;;;4.72;3.35;;;;;;;20.22;49.06;95536.63;5117165;28;20191;-75
2022/07/20 07:21:44;;;;;;;3.67;3.28;;;;;;;20.29;49.25;95531.00;5099448;28;20184;-75
2022/07/20 07:24:11;;;;;;;5.18;3.40;;;;;;;20.41;49.33;95527.78;5115643;28;20206;-75
2022/07/20 07:26:38;;;;;;;3.38;3.00;;;;;;;20.55;50.09;95527.75;5115815;28;20203;-75
2022/07/20 07:29:05;;;;;;;5.15;3.20;;;;;;;20.68;50.08;95531.69;5115902;28;20210;-76
2022/07/20 07:31:31;;;;;;;3.10;2.88;;;;;;;20.84;49.65;95525.63;5115950;28;20219;-75
2022/07/20 07:33:58;;;;;;;4.40;3.40;;;;;;;20.93;49.09;95527.97;5116713;28;20176;-73
2022/07/20 07:36:25;;;;;;;4.40;2.97;;;;;;;20.94;48.26;95520.34;5115957;28;20212;-73
2022/07/20 07:38:53;;;;;;;4.15;3.70;;;;;;;20.95;48.76;95524.75;5115668;28;20199;-72
2022/07/20 07:41:21;;;;;;;3.75;3.40;;;;;;;20.97;48.70;95525.13;5116491;28;20188;-74
2022/07/20 07:43:48;;;;;;;5.82;3.15;;;;;;;21.08;49.44;95523.84;5116546;28;20203;-73
2022/07/20 07:46:14;;;;;;;3.67;3.25;;;;;;;21.16;48.55;95519.00;5115920;28;20541;-73
2022/07/20 07:48:41;;;;;;;4.30;3.20;;;;;;;21.21;49.03;95514.97;5116727;28;20183;-73
2022/07/20 07:51:08;;;;;;;3.85;3.47;;;;;;;21.24;48.20;95520.56;5116440;28;20226;-73
2022/07/20 07:53:35;;;;;;;7.07;3.33;;;;;;;21.36;48.63;95519.31;5116837;28;20243;-72
2022/07/20 07:56:03;;;;;;;3.58;3.22;;;;;;;21.53;48.11;95517.56;5115467;28;20196;-71
2022/07/20 07:58:30;;;;;;;4.95;3.20;;;;;;;21.60;47.94;95514.69;5115443;28;20199;-71
2022/07/20 08:00:57;;;;;;;6.03;3.40;;;;;;;21.62;47.08;95513.06;5116527;28;20180;-70
2022/07/20 08:03:24;;;;;;;4.10;3.67;;;;;;;21.62;45.70;95512.28;5116264;28;20191;-71
2022/07/20 08:05:50;;;;;;;3.70;3.22;;;;;;;21.58;45.74;95509.50;5116379;28;20188;-72
2022/07/20 08:08:17;;;;;;;3.72;3.42;;;;;;;21.66;47.47;95513.03;5116178;28;20192;-72
2022/07/20 08:10:45;;;;;;;4.38;3.03;;;;;;;21.78;47.14;95508.91;5115656;28;20210;-72
2022/07/20 08:13:13;;;;;;;6.20;3.45;;;;;;;21.90;46.61;95508.41;5115001;28;20203;-71
2022/07/20 08:15:40;;;;;;;3.78;3.10;;;;;;;22.00;46.32;95504.69;5115000;28;20206;-71
2022/07/20 08:18:07;;;;;;;4.45;3.22;;;;;;;22.10;46.05;95495.34;5116147;28;20192;-71
2022/07/20 08:20:34;;;;;;;4.68;3.03;;;;;;;22.13;44.82;95498.56;5115971;28;20176;-71
2022/07/20 08:23:01;;;;;;;3.97;3.28;;;;;;;22.19;45.49;95502.53;5115717;28;20191;-70
2022/07/20 08:25:28;;;;;;;4.25;3.10;;;;;;;22.21;41.82;95498.09;5115980;28;20190;-72
2022/07/20 08:27:55;;;;;;;3.60;3.20;;;;;;;22.15;41.74;95501.75;5115177;28;20188;-73
2022/07/20 08:30:23;;;;;;;3.75;3.33;;;;;;;22.15;43.03;95499.78;5115241;28;20195;-72
2022/07/20 08:32:50;;;;;;;4.00;3.40;;;;;;;22.16;43.17;95494.94;5115548;28;20206;-72
2022/07/20 08:35:16;;;;;;;3.58;3.13;;;;;;;22.18;45.11;95492.50;5115620;28;20553;-72
2022/07/20 08:37:43;;;;;;;5.35;4.03;;;;;;;22.19;44.41;95491.31;5115804;28;20199;-71
2022/07/20 08:40:10;;;;;;;4.78;3.10;;;;;;;22.19;45.44;95489.28;5115369;28;20200;-71
2022/07/20 08:42:37;;;;;;;3.22;2.97;;;;;;;22.24;45.32;95488.03;5114873;28;20195;-72
2022/07/20 08:45:04;;;;;;;3.80;2.88;;;;;;;22.35;43.26;95492.31;5116520;28;20184;-72
2022/07/20 08:47:35;;;;;;;4.47;3.17;;;;;;;22.51;42.82;95485.28;5115091;28;20204;-71
2022/07/20 08:50:02;;;;;;;3.13;2.88;;;;;;;22.55;43.14;95486.06;5114792;28;20199;-71
2022/07/20 08:52:29;;;;;;;3.70;2.80;;;;;;;22.64;42.14;95486.31;5114678;28;20548;-71
2022/07/20 08:54:56;;;;;;;3.08;2.80;;;;;;;22.72;41.67;95475.78;5115300;28;20603;-71
2022/07/20 08:57:22;;;;;;;4.22;2.75;;;;;;;22.82;41.58;95478.44;5119544;28;20199;-71
2022/07/20 08:59:49;;;;;;;3.33;3.03;;;;;;;22.90;41.14;95475.53;5120400;28;20187;-71
2022/07/20 09:02:17;;;;;;;4.40;2.83;;;;;;;22.91;41.22;95477.91;5119671;28;20198;-72
2022/07/20 09:04:52;;;;;;;3.42;2.35;;;;;;;23.00;40.50;95478.22;5120635;28;20274;-72
2022/07/20 09:07:19;;;;;;;2.30;2.20;;;;;;;23.24;38.91;95478.28;5119791;28;20204;-71
2022/07/20 09:09:46;;;;;;;3.03;2.60;;;;;;;23.24;40.00;95473.47;5117898;28;20436;-72
2022/07/20 09:12:12;;;;;;;5.10;2.70;;;;;;;23.40;39.29;95484.06;5118707;28;20208;-71
2022/07/20 09:14:43;;;;;;;2.85;2.40;;;;;;;23.47;37.92;95477.53;5118783;28;20635;-70
2022/07/20 09:17:20;;;;;;;2.35;2.22;;;;;;;23.54;37.53;95471.78;5119437;28;20215;-71
2022/07/20 09:19:59;;;;;;;4.75;2.47;;;;;;;23.55;39.03;95471.34;5118979;28;20196;-72
2022/07/20 09:22:33;;;;;;;3.45;2.40;;;;;;;23.66;37.79;95461.91;5119927;28;20191;-70
2022/07/20 09:25:08;;;;;;;5.10;2.50;;;;;;;23.67;39.82;95461.50;5119293;28;20588;-71
2022/07/20 09:27:35;;;;;;;5.68;2.45;;;;;;;23.76;38.58;95472.22;5119049;28;20191;-72
2022/07/20 09:30:09;;;;;;;3.00;2.80;;;;;;;23.82;38.59;95462.06;5118370;28;20211;-72
2022/07/20 09:32:51;;;;;;;3.08;2.35;;;;;;;23.94;39.87;95460.66;5118304;28;20234;-72
2022/07/20 09:35:20;;;;;;;2.40;2.20;;;;;;;24.01;38.78;95461.31;5118006;28;20202;-71
2022/07/20 09:37:47;;;;;;;2.83;2.63;;;;;;;24.18;37.62;95458.56;5118722;28;20588;-71
2022/07/20 09:40:14;;;;;;;2.65;2.42;;;;;;;24.24;38.02;95462.47;5119209;28;20184;-72
2022/07/20 09:42:42;;;;;;;4.40;2.80;;;;;;;24.21;38.65;95464.13;5118076;28;20199;-71
2022/07/20 09:45:24;;;;;;;2.60;2.40;;;;;;;24.25;38.21;95456.41;5118019;28;20278;-71
2022/07/20 09:48:01;;;;;;;2.63;2.42;;;;;;;24.29;38.45;95444.25;5117955;28;20199;-72
2022/07/20 09:50:31;;;;;;;4.53;2.42;;;;;;;24.39;37.47;95446.91;5118351;28;20196;-72
2022/07/20 09:52:58;;;;;;;2.85;2.55;;;;;;;24.54;37.84;95435.31;5117328;28;20265;-72
2022/07/20 09:55:26;;;;;;;3.42;2.55;;;;;;;24.45;38.47;95441.56;5118476;28;20198;-71
2022/07/20 09:57:54;;;;;;;2.70;2.42;;;;;;;24.46;36.72;95441.09;5117405;28;20245;-71
2022/07/20 10:00:22;;;;;;;3.38;2.80;;;;;;;24.47;38.46;95436.25;5119000;28;20203;-71
2022/07/20 10:02:50;;;;;;;2.67;2.47;;;;;;;24.71;37.22;95434.94;5118469;28;20180;-71
2022/07/20 10:08:06;;;;;;;3.10;2.80;;;;;;;24.59;37.07;95427.16;5118348;28;20176;-71
2022/07/20 10:10:34;;;;;;;2.70;2.47;;;;;;;24.61;36.69;95429.53;5118061;28;20209;-71
2022/07/20 10:13:01;;;;;;;2.65;2.45;;;;;;;24.65;36.64;95427.44;5117999;28;20196;-71
2022/07/20 10:15:34;;;;;;;3.03;2.50;;;;;;;24.70;36.57;95418.47;5118500;28;20184;-71
2022/07/20 10:18:01;;;;;;;3.30;3.10;;;;;;;24.87;34.91;95416.47;5118330;28;20187;-72
2022/07/20 10:20:30;;;;;;;2.60;2.40;;;;;;;24.84;36.74;95414.53;5117320;28;20206;-71
2022/07/20 10:23:28;;;;;;;4.60;2.60;;;;;;;24.89;36.76;95419.66;5117018;28;20199;-72
2022/07/20 10:25:55;;;;;;;2.63;2.42;;;;;;;25.10;35.83;95410.72;5118117;28;20623;-70
2022/07/20 10:28:34;;;;;;;5.13;2.40;;;;;;;25.09;36.33;95409.09;5118138;28;20256;-70
2022/07/20 10:31:05;;;;;;;3.47;2.78;;;;;;;25.10;36.10;95410.72;5118018;28;20195;-71
2022/07/20 10:33:36;;;;;;;2.92;2.38;;;;;;;25.13;35.68;95406.22;5117590;28;20223;-71
2022/07/20 10:38:56;;;;;;;2.63;2.42;;;;;;;25.12;34.47;95393.31;5117432;28;20180;-71
2022/07/20 10:41:39;;;;;;;3.03;2.50;;;;;;;25.05;37.19;95390.66;5116857;28;20203;-71
2022/07/20 10:44:28;;;;;;;2.88;2.42;;;;;;;24.84;37.33;95381.47;5117664;28;20180;-71
2022/07/20 10:46:55;;;;;;;4.88;2.33;;;;;;;24.88;36.65;95375.75;5116402;28;20223;-71
2022/07/20 10:50:03;;;;;;;2.58;2.30;;;;;;;24.87;36.73;95365.69;5117806;28;20223;-71
2022/07/20 10:52:32;;;;;;;3.55;2.60;;;;;;;24.87;37.34;95377.75;5116269;28;20215;-72
2022/07/20 10:55:03;;;;;;;2.95;2.50;;;;;;;24.82;36.75;95367.00;5116441;28;20231;-71
2022/07/20 10:57:31;;;;;;;2.42;2.33;;;;;;;24.85;36.46;95368.16;5116765;28;20195;-72
2022/07/20 11:00:16;;;;;;;2.50;2.30;;;;;;;24.85;36.73;95362.53;5117154;28;20206;-71
2022/07/20 11:02:43;;;;;;;2.25;2.05;;;;;;;24.89;36.12;95360.41;5116538;28;20195;-71
2022/07/20 11:05:20;;;;;;;2.42;2.22;;;;;;;24.99;37.51;95353.72;5116829;28;20207;-71
2022/07/20 11:07:46;;;;;;;4.22;2.60;;;;;;;25.03;36.19;95362.09;5116787;28;20229;-71
2022/07/20 11:10:23;;;;;;;3.53;2.30;;;;;;;24.81;37.22;95359.00;5117254;28;20187;-71
2022/07/20 11:12:57;;;;;;;2.45;2.28;;;;;;;24.79;38.24;95352.97;5116968;28;20541;-70
2022/07/20 11:15:25;;;;;;;2.90;2.65;;;;;;;24.79;37.28;95358.63;5116625;28;20215;-70
2022/07/20 11:17:55;;;;;;;3.17;2.50;;;;;;;25.17;35.52;95350.50;5115899;28;20210;-70
2022/07/20 11:20:22;;;;;;;3.08;2.63;;;;;;;25.24;36.03;95346.66;5116084;28;20224;-70
2022/07/20 11:22:49;;;;;;;3.13;2.40;;;;;;;25.39;35.39;95348.69;5115978;28;20210;-70
2022/07/20 11:25:15;;;;;;;2.60;2.40;;;;;;;25.57;35.66;95348.22;5115525;28;20566;-70
2022/07/20 11:27:44;;;;;;;2.92;2.70;;;;;;;25.81;35.29;95345.19;5116015;28;20200;-70
2022/07/20 11:30:12;;;;;;;2.88;2.67;;;;;;;25.89;35.17;95340.91;5116087;28;20192;-71
2022/07/20 11:32:53;;;;;;;4.00;2.50;;;;;;;25.93;34.54;95335.97;5115666;28;20230;-70
2022/07/20 11:35:20;;;;;;;2.72;2.25;;;;;;;25.91;34.53;95344.88;5116550;28;20179;-70
2022/07/20 11:37:52;;;;;;;2.92;2.55;;;;;;;26.11;34.52;95333.44;5116860;28;20252;-70
2022/07/20 11:40:18;;;;;;;2.45;2.25;;;;;;;26.17;34.43;95325.19;5116764;28;20200;-70
2022/07/20 11:43:05;;;;;;;2.42;2.22;;;;;;;26.02;37.18;95332.50;5115378;28;20195;-70
2022/07/20 11:45:32;;;;;;;2.75;2.40;;;;;;;25.99;36.51;95328.53;5115936;28;20196;-70
2022/07/20 11:47:59;;;;;;;5.00;2.67;;;;;;;25.96;35.44;95320.16;5115776;28;20195;-71